Time,TemperatureF,DewpointF,PressureIn,WindDirection,WindDirectionDegrees,WindSpeedMPH,WindSpeedGustMPH,Humidity,HourlyPrecipIn,Conditions,Clouds,dailyrainin,SoftwareType,DateUTC
2013-02-25 00:01:00,23.6,19.2,30.11,NNW,334,0.0,0.0,83,-99.99,,,0.00,1-wire,2013-02-25 06:01:00,
2013-02-25 00:06:00,23.7,19.2,30.11,NNW,339,0.0,0.0,83,-99.99,,,0.00,1-wire,2013-02-25 06:06:00,
2013-02-25 00:11:00,23.5,19.1,30.11,NNW,339,0.0,0.0,83,-99.99,,,0.00,1-wire,2013-02-25 06:11:00,
2013-02-25 00:16:00,23.3,18.8,30.11,NNW,339,0.0,0.0,82,-99.99,,,0.00,1-wire,2013-02-25 06:16:00,
2013-02-25 00:21:00,23.6,18.9,30.11,NNW,342,0.0,0.0,82,-99.99,,,0.00,1-wire,2013-02-25 06:21:00,
2013-02-25 00:26:00,23.2,18.7,30.10,NNW,342,0.0,0.0,83,-99.99,,,0.00,1-wire,2013-02-25 06:26:00,
2013-02-25 00:31:00,23.2,19.0,30.10,NNW,342,0.0,0.0,83,-99.99,,,0.00,1-wire,2013-02-25 06:31:00,
2013-02-25 00:36:00,23.4,19.2,30.11,NNW,341,0.0,0.0,83,-99.99,,,0.00,1-wire,2013-02-25 06:36:00,
2013-02-25 00:41:00,23.2,19.0,30.11,NNW,341,0.0,0.0,84,-99.99,,,0.00,1-wire,2013-02-25 06:41:00,
2013-02-25 00:46:00,22.9,18.7,30.11,NNW,341,0.0,0.0,84,-99.99,,,0.00,1-wire,2013-02-25 06:46:00,
2013-02-25 00:51:00,22.9,19.0,30.11,NNW,343,0.0,0.0,85,-99.99,,,0.00,1-wire,2013-02-25 06:51:00,
2013-02-25 00:56:00,23.1,18.8,30.11,NNW,343,0.0,0.0,83,-99.99,,,0.00,1-wire,2013-02-25 06:56:00,
2013-02-25 01:01:00,23.1,18.8,30.12,NNW,343,0.0,0.0,83,-99.99,,,0.00,1-wire,2013-02-25 07:01:00,
2013-02-25 01:06:00,22.8,18.7,30.11,NNW,338,0.0,0.0,84,-99.99,,,0.00,1-wire,2013-02-25 07:06:00,
2013-02-25 01:12:00,22.8,18.8,30.11,NNW,338,0.0,0.0,84,-99.99,,,0.00,1-wire,2013-02-25 07:12:00,
2013-02-25 01:17:00,22.7,18.8,30.11,NNW,338,0.0,0.0,85,-99.99,,,0.00,1-wire,2013-02-25 07:17:00,
2013-02-25 01:22:00,22.6,18.9,30.11,NNW,347,0.0,0.0,86,-99.99,,,0.00,1-wire,2013-02-25 07:22:00,
2013-02-25 01:27:00,22.4,18.6,30.11,NNW,347,0.0,0.0,85,-99.99,,,0.00,1-wire,2013-02-25 07:27:00,
2013-02-25 01:32:00,22.6,18.7,30.11,NNW,347,0.0,0.0,85,-99.99,,,0.00,1-wire,2013-02-25 07:32:00,
2013-02-25 01:37:00,22.5,18.8,30.11,NNW,342,0.0,0.0,85,-99.99,,,0.00,1-wire,2013-02-25 07:37:00,
2013-02-25 01:42:00,22.4,18.5,30.11,NNW,342,0.0,0.0,85,-99.99,,,0.00,1-wire,2013-02-25 07:42:00,
2013-02-25 01:47:00,23.0,19.0,30.11,NNW,342,0.0,0.0,85,-99.99,,,0.00,1-wire,2013-02-25 07:47:00,
2013-02-25 01:52:00,22.7,18.7,30.11,NNW,334,0.0,0.0,84,-99.99,,,0.00,1-wire,2013-02-25 07:52:00,
2013-02-25 01:57:00,22.7,18.8,30.11,NNW,334,0.0,0.0,85,-99.99,,,0.00,1-wire,2013-02-25 07:57:00,
2013-02-25 02:02:00,22.5,18.6,30.11,NNW,334,0.0,0.0,85,-99.99,,,0.00,1-wire,2013-02-25 08:02:00,
2013-02-25 02:07:00,22.0,18.3,30.11,NNW,332,0.0,0.0,86,-99.99,,,0.00,1-wire,2013-02-25 08:07:00,
2013-02-25 02:12:00,22.1,18.6,30.12,NNW,332,0.0,0.0,86,-99.99,,,0.00,1-wire,2013-02-25 08:12:00,
2013-02-25 02:17:00,21.7,18.5,30.11,NNW,332,0.0,0.0,87,-99.99,,,0.00,1-wire,2013-02-25 08:17:00,
2013-02-25 02:23:00,22.2,18.6,30.11,NNW,330,0.0,0.0,86,-99.99,,,0.00,1-wire,2013-02-25 08:23:00,
2013-02-25 02:29:00,21.5,18.2,30.11,NNW,330,0.0,0.0,86,-99.99,,,0.00,1-wire,2013-02-25 08:29:00,
2013-02-25 02:35:00,21.7,18.3,30.11,NNW,330,0.0,0.0,87,-99.99,,,0.00,1-wire,2013-02-25 08:35:00,
2013-02-25 02:40:00,21.6,18.3,30.11,NNW,330,0.0,0.0,87,-99.99,,,0.00,1-wire,2013-02-25 08:40:00,
2013-02-25 02:45:00,21.7,18.3,30.10,NNW,330,0.0,0.0,86,-99.99,,,0.00,1-wire,2013-02-25 08:45:00,
2013-02-25 02:50:00,21.7,18.4,30.10,NNW,330,0.0,0.0,87,-99.99,,,0.00,1-wire,2013-02-25 08:50:00,
2013-02-25 02:56:00,21.6,18.3,30.11,NNW,336,0.0,0.0,87,-99.99,,,0.00,1-wire,2013-02-25 08:56:00,
2013-02-25 03:02:00,22.0,18.8,30.10,NNW,336,0.0,0.0,87,-99.99,,,0.00,1-wire,2013-02-25 09:02:00,
2013-02-25 03:08:00,22.0,18.6,30.10,NNW,348,0.0,0.0,87,-99.99,,,0.00,1-wire,2013-02-25 09:08:00,
2013-02-25 03:13:00,21.9,18.6,30.10,NNW,348,0.0,0.0,87,-99.99,,,0.00,1-wire,2013-02-25 09:13:00,
2013-02-25 03:18:00,22.0,18.6,30.10,NNW,348,0.0,0.0,86,-99.99,,,0.00,1-wire,2013-02-25 09:18:00,
2013-02-25 03:23:00,21.9,18.5,30.10,NNW,346,0.0,0.0,86,-99.99,,,0.00,1-wire,2013-02-25 09:23:00,
2013-02-25 03:28:00,22.0,18.6,30.10,NNW,346,0.0,0.0,86,-99.99,,,0.00,1-wire,2013-02-25 09:28:00,
2013-02-25 03:34:00,22.1,18.7,30.10,NNW,346,0.0,0.0,86,-99.99,,,0.00,1-wire,2013-02-25 09:34:00,
2013-02-25 03:40:00,21.8,18.4,30.10,North,10,0.0,0.0,87,-99.99,,,0.00,1-wire,2013-02-25 09:40:00,
2013-02-25 03:46:00,21.9,18.5,30.10,North,10,0.0,0.0,87,-99.99,,,0.00,1-wire,2013-02-25 09:46:00,
2013-02-25 03:52:00,20.7,17.9,30.10,North,10,0.0,0.0,89,-99.99,,,0.00,1-wire,2013-02-25 09:52:00,
2013-02-25 03:58:00,20.8,18.2,30.10,North,10,0.0,0.0,90,-99.99,,,0.00,1-wire,2013-02-25 09:58:00,
2013-02-25 04:03:00,21.3,18.4,30.10,North,10,0.0,0.0,88,-99.99,,,0.00,1-wire,2013-02-25 10:03:00,
2013-02-25 04:08:00,21.2,18.1,30.10,North,355,0.0,0.0,88,-99.99,,,0.00,1-wire,2013-02-25 10:08:00,
2013-02-25 04:13:00,21.3,18.2,30.10,North,355,0.0,0.0,88,-99.99,,,0.00,1-wire,2013-02-25 10:13:00,
2013-02-25 04:18:00,20.9,17.9,30.10,North,355,0.0,0.0,88,-99.99,,,0.00,1-wire,2013-02-25 10:18:00,
2013-02-25 04:24:00,21.1,18.0,30.11,North,359,0.0,0.0,88,-99.99,,,0.00,1-wire,2013-02-25 10:24:00,
2013-02-25 04:29:00,20.6,17.7,30.11,North,359,0.0,0.0,88,-99.99,,,0.00,1-wire,2013-02-25 10:29:00,
2013-02-25 04:34:00,21.1,18.0,30.11,North,359,0.0,0.0,88,-99.99,,,0.00,1-wire,2013-02-25 10:34:00,
2013-02-25 04:39:00,21.0,17.9,30.11,North,4,0.0,0.0,88,-99.99,,,0.00,1-wire,2013-02-25 10:39:00,
2013-02-25 04:44:00,20.4,17.7,30.11,North,4,0.0,0.0,89,-99.99,,,0.00,1-wire,2013-02-25 10:44:00,
2013-02-25 04:49:00,20.2,17.6,30.11,North,4,0.0,0.0,89,-99.99,,,0.00,1-wire,2013-02-25 10:49:00,
2013-02-25 04:54:00,20.2,17.4,30.11,NNE,16,0.0,0.0,89,-99.99,,,0.00,1-wire,2013-02-25 10:54:00,
2013-02-25 05:00:00,20.1,17.4,30.11,NNE,16,0.0,0.0,89,-99.99,,,0.00,1-wire,2013-02-25 11:00:00,
2013-02-25 05:06:00,20.4,17.7,30.12,NNE,16,0.0,0.0,89,-99.99,,,0.00,1-wire,2013-02-25 11:06:00,
2013-02-25 05:11:00,19.8,17.5,30.12,NNE,16,0.0,0.0,90,-99.99,,,0.00,1-wire,2013-02-25 11:11:00,
2013-02-25 05:16:00,20.3,17.8,30.12,NNE,16,0.0,0.0,90,-99.99,,,0.00,1-wire,2013-02-25 11:16:00,
2013-02-25 05:21:00,20.0,17.6,30.12,NNE,21,0.0,0.0,90,-99.99,,,0.00,1-wire,2013-02-25 11:21:00,
2013-02-25 05:26:00,20.0,17.6,30.12,NNE,21,0.0,0.0,90,-99.99,,,0.00,1-wire,2013-02-25 11:26:00,
2013-02-25 05:31:00,19.9,17.5,30.12,NNE,21,0.0,0.0,90,-99.99,,,0.00,1-wire,2013-02-25 11:31:00,
2013-02-25 05:36:00,19.9,17.6,30.12,NNE,29,0.0,0.0,91,-99.99,,,0.00,1-wire,2013-02-25 11:36:00,
2013-02-25 05:41:00,20.0,17.8,30.13,NNE,29,0.0,0.0,91,-99.99,,,0.00,1-wire,2013-02-25 11:41:00,
2013-02-25 05:46:00,20.0,17.5,30.13,NNE,29,0.0,0.0,90,-99.99,,,0.00,1-wire,2013-02-25 11:46:00,
2013-02-25 05:51:00,20.2,17.7,30.13,North,6,0.0,0.0,90,-99.99,,,0.00,1-wire,2013-02-25 11:51:00,
2013-02-25 05:56:00,20.0,17.4,30.13,North,6,0.0,0.0,89,-99.99,,,0.00,1-wire,2013-02-25 11:56:00,
2013-02-25 06:01:00,20.2,17.6,30.14,North,6,0.0,0.0,89,-99.99,,,0.00,1-wire,2013-02-25 12:01:00,
2013-02-25 06:06:00,19.8,17.4,30.14,North,3,0.0,0.0,90,-99.99,,,0.00,1-wire,2013-02-25 12:06:00,
2013-02-25 06:11:00,19.7,17.3,30.13,North,3,0.0,0.0,90,-99.99,,,0.00,1-wire,2013-02-25 12:11:00,
2013-02-25 06:16:00,20.0,17.7,30.12,North,3,0.0,0.0,90,-99.99,,,0.00,1-wire,2013-02-25 12:16:00,
2013-02-25 06:21:00,20.1,17.8,30.12,NNE,22,0.0,0.0,90,-99.99,,,0.00,1-wire,2013-02-25 12:21:00,
2013-02-25 06:26:00,20.3,18.0,30.12,NNE,22,0.0,0.0,90,-99.99,,,0.00,1-wire,2013-02-25 12:26:00,
2013-02-25 06:31:00,20.3,18.0,30.11,NNE,22,0.0,0.0,91,-99.99,,,0.00,1-wire,2013-02-25 12:31:00,
2013-02-25 06:36:00,20.4,18.0,30.11,NNE,18,0.0,0.0,90,-99.99,,,0.00,1-wire,2013-02-25 12:36:00,
2013-02-25 06:41:00,20.2,17.7,30.12,NNE,18,0.0,0.0,90,-99.99,,,0.00,1-wire,2013-02-25 12:41:00,
2013-02-25 06:47:00,20.0,17.6,30.11,NNE,18,0.0,0.0,90,-99.99,,,0.00,1-wire,2013-02-25 12:47:00,
2013-02-25 06:53:00,19.9,17.7,30.12,NNE,21,0.0,0.0,91,-99.99,,,0.00,1-wire,2013-02-25 12:53:00,
2013-02-25 06:58:00,19.5,17.2,30.11,NNE,21,0.0,0.0,90,-99.99,,,0.00,1-wire,2013-02-25 12:58:00,
2013-02-25 07:04:00,20.2,17.8,30.12,NNE,21,0.0,0.0,90,-99.99,,,0.00,1-wire,2013-02-25 13:04:00,
2013-02-25 07:09:00,20.4,18.0,30.12,NNE,17,0.0,0.0,90,-99.99,,,0.00,1-wire,2013-02-25 13:09:00,
2013-02-25 07:14:00,20.2,17.8,30.12,NNE,17,0.0,0.0,90,-99.99,,,0.00,1-wire,2013-02-25 13:14:00,
2013-02-25 07:20:00,20.3,17.8,30.12,NNE,17,0.0,0.0,90,-99.99,,,0.00,1-wire,2013-02-25 13:20:00,
2013-02-25 07:25:00,20.7,18.2,30.12,North,5,0.0,0.0,90,-99.99,,,0.00,1-wire,2013-02-25 13:25:00,
2013-02-25 07:30:00,21.1,18.5,30.12,North,5,0.0,0.0,90,-99.99,,,0.00,1-wire,2013-02-25 13:30:00,
2013-02-25 07:35:00,21.8,19.0,30.13,North,5,0.0,0.0,89,-99.99,,,0.00,1-wire,2013-02-25 13:35:00,
2013-02-25 07:41:00,22.2,19.4,30.13,NNE,20,0.0,0.0,89,-99.99,,,0.00,1-wire,2013-02-25 13:41:00,
2013-02-25 07:46:00,22.2,19.2,30.13,NNE,20,0.0,0.0,88,-99.99,,,0.00,1-wire,2013-02-25 13:46:00,
2013-02-25 07:52:00,22.3,19.3,30.14,NNE,23,0.0,0.0,88,-99.99,,,0.00,1-wire,2013-02-25 13:52:00,
2013-02-25 07:57:00,23.2,19.9,30.13,NNE,23,0.0,0.0,87,-99.99,,,0.00,1-wire,2013-02-25 13:57:00,
2013-02-25 08:03:00,23.2,19.8,30.14,NNE,23,0.0,0.0,87,-99.99,,,0.00,1-wire,2013-02-25 14:03:00,
2013-02-25 08:09:00,23.7,20.2,30.14,NNE,26,0.0,0.0,86,-99.99,,,0.00,1-wire,2013-02-25 14:09:00,
2013-02-25 08:14:00,24.3,20.5,30.13,NNE,26,0.0,0.0,85,-99.99,,,0.00,1-wire,2013-02-25 14:14:00,
2013-02-25 08:20:00,24.8,20.5,30.14,NNE,26,0.0,0.0,83,-99.99,,,0.00,1-wire,2013-02-25 14:20:00,
2013-02-25 08:25:00,25.6,20.5,30.13,NNE,19,1.0,3.0,81,-99.99,,,0.00,1-wire,2013-02-25 14:25:00,
2013-02-25 08:30:00,26.1,20.6,30.13,NNE,19,0.0,0.0,79,-99.99,,,0.00,1-wire,2013-02-25 14:30:00,
2013-02-25 08:36:00,27.6,21.3,30.13,NNE,19,0.0,0.0,77,-99.99,,,0.00,1-wire,2013-02-25 14:36:00,
2013-02-25 08:41:00,28.5,21.0,30.13,NNE,19,0.0,0.0,73,-99.99,,,0.00,1-wire,2013-02-25 14:41:00,
2013-02-25 08:47:00,28.9,21.2,30.14,NNE,19,1.0,3.0,72,-99.99,,,0.00,1-wire,2013-02-25 14:47:00,
2013-02-25 08:53:00,29.7,21.2,30.13,NNE,27,0.0,3.0,70,-99.99,,,0.00,1-wire,2013-02-25 14:53:00,
2013-02-25 08:58:00,29.8,21.2,30.13,NNE,27,0.0,0.0,70,-99.99,,,0.00,1-wire,2013-02-25 14:58:00,
2013-02-25 09:03:00,30.3,21.2,30.13,NNE,27,1.0,3.0,69,-99.99,,,0.00,1-wire,2013-02-25 15:03:00,
2013-02-25 09:09:00,30.7,21.5,30.13,North,354,1.0,3.0,68,-99.99,,,0.00,1-wire,2013-02-25 15:09:00,
2013-02-25 09:14:00,30.8,21.6,30.13,North,354,0.0,0.0,68,-99.99,,,0.00,1-wire,2013-02-25 15:14:00,
2013-02-25 09:20:00,31.6,22.1,30.12,North,354,0.0,0.0,68,-99.99,,,0.00,1-wire,2013-02-25 15:20:00,
2013-02-25 09:25:00,31.9,22.2,30.12,North,0,0.0,0.0,67,-99.99,,,0.00,1-wire,2013-02-25 15:25:00,
2013-02-25 09:30:00,31.5,22.0,30.12,North,0,1.0,3.0,67,-99.99,,,0.00,1-wire,2013-02-25 15:30:00,
2013-02-25 09:36:00,32.1,22.0,30.11,North,11,2.0,6.0,66,-99.99,,,0.00,1-wire,2013-02-25 15:36:00,
2013-02-25 09:42:00,33.6,23.5,30.12,North,11,2.0,3.0,66,-99.99,,,0.00,1-wire,2013-02-25 15:42:00,
2013-02-25 09:47:00,33.6,22.8,30.12,North,11,1.0,6.0,64,-99.99,,,0.00,1-wire,2013-02-25 15:47:00,
2013-02-25 09:52:00,34.0,23.0,30.12,NNW,333,2.0,6.0,64,-99.99,,,0.00,1-wire,2013-02-25 15:52:00,
2013-02-25 09:57:00,34.8,23.2,30.11,NNW,333,1.0,6.0,62,-99.99,,,0.00,1-wire,2013-02-25 15:57:00,
2013-02-25 10:03:00,35.0,23.3,30.10,NNW,333,1.0,5.0,62,-99.99,,,0.00,1-wire,2013-02-25 16:03:00,
2013-02-25 10:08:00,35.2,23.4,30.10,NNE,24,2.0,6.0,62,-99.99,,,0.00,1-wire,2013-02-25 16:08:00,
2013-02-25 10:13:00,36.4,24.2,30.11,NNE,24,5.0,15.0,61,-99.99,,,0.00,1-wire,2013-02-25 16:13:00,
2013-02-25 10:19:00,36.5,23.8,30.11,NNE,24,4.0,8.0,60,-99.99,,,0.00,1-wire,2013-02-25 16:19:00,
2013-02-25 10:24:00,36.5,23.4,30.11,North,8,2.0,6.0,59,-99.99,,,0.00,1-wire,2013-02-25 16:24:00,
2013-02-25 10:29:00,38.3,24.8,30.11,North,8,0.0,3.0,58,-99.99,,,0.00,1-wire,2013-02-25 16:29:00,
2013-02-25 10:34:00,37.3,23.6,30.12,North,8,0.0,3.0,57,-99.99,,,0.00,1-wire,2013-02-25 16:34:00,
2013-02-25 10:39:00,36.7,23.6,30.12,NNE,20,1.0,3.0,59,-99.99,,,0.00,1-wire,2013-02-25 16:39:00,
2013-02-25 10:44:00,37.2,24.0,30.12,NNE,20,0.0,3.0,58,-99.99,,,0.00,1-wire,2013-02-25 16:44:00,
2013-02-25 10:49:00,37.6,24.1,30.12,NNE,20,2.0,3.0,58,-99.99,,,0.00,1-wire,2013-02-25 16:49:00,
2013-02-25 10:54:00,36.8,24.2,30.12,NNW,336,3.0,6.0,60,-99.99,,,0.00,1-wire,2013-02-25 16:54:00,
2013-02-25 10:59:00,37.4,24.1,30.12,NNW,336,3.0,6.0,58,-99.99,,,0.00,1-wire,2013-02-25 16:59:00,
2013-02-25 11:04:00,39.3,25.3,30.12,NNW,336,1.0,3.0,57,-99.99,,,0.00,1-wire,2013-02-25 17:04:00,
2013-02-25 11:09:00,39.1,25.5,30.12,North,5,0.0,3.0,58,-99.99,,,0.00,1-wire,2013-02-25 17:09:00,
2013-02-25 11:14:00,38.3,24.9,30.12,North,5,4.0,6.0,58,-99.99,,,0.00,1-wire,2013-02-25 17:14:00,
2013-02-25 11:19:00,36.5,23.9,30.12,North,5,1.0,6.0,60,-99.99,,,0.00,1-wire,2013-02-25 17:19:00,
2013-02-25 11:24:00,37.5,24.6,30.12,SW,227,1.0,6.0,59,-99.99,,,0.00,1-wire,2013-02-25 17:24:00,
2013-02-25 11:29:00,37.6,24.4,30.12,SW,227,5.0,9.0,58,-99.99,,,0.00,1-wire,2013-02-25 17:29:00,
2013-02-25 11:34:00,38.3,24.3,30.12,SW,227,4.0,6.0,57,-99.99,,,0.00,1-wire,2013-02-25 17:34:00,
2013-02-25 11:39:00,38.2,25.0,30.12,SSE,150,1.0,3.0,59,-99.99,,,0.00,1-wire,2013-02-25 17:39:00,
2013-02-25 11:44:00,38.2,24.3,30.12,SSE,150,2.0,6.0,57,-99.99,,,0.00,1-wire,2013-02-25 17:44:00,
2013-02-25 11:49:00,38.8,25.2,30.12,SSE,150,1.0,3.0,58,-99.99,,,0.00,1-wire,2013-02-25 17:49:00,
2013-02-25 11:54:00,38.4,24.7,30.12,SE,134,1.0,3.0,57,-99.99,,,0.00,1-wire,2013-02-25 17:54:00,
2013-02-25 11:59:00,38.3,24.7,30.11,SE,134,2.0,6.0,57,-99.99,,,0.00,1-wire,2013-02-25 17:59:00,
2013-02-25 12:05:00,38.2,24.6,30.11,SE,134,2.0,6.0,58,-99.99,,,0.00,1-wire,2013-02-25 18:05:00,
2013-02-25 12:10:00,38.8,25.5,30.11,SSW,196,2.0,3.0,58,-99.99,,,0.00,1-wire,2013-02-25 18:10:00,
2013-02-25 12:15:00,39.5,25.6,30.11,SSW,196,3.0,6.0,57,-99.99,,,0.00,1-wire,2013-02-25 18:15:00,
2013-02-25 12:20:00,40.0,25.9,30.11,SSW,196,1.0,3.0,57,-99.99,,,0.00,1-wire,2013-02-25 18:20:00,
2013-02-25 12:25:00,40.1,25.9,30.10,South,183,2.0,6.0,56,-99.99,,,0.00,1-wire,2013-02-25 18:25:00,
2013-02-25 12:30:00,40.2,25.8,30.10,South,183,2.0,6.0,56,-99.99,,,0.00,1-wire,2013-02-25 18:30:00,
2013-02-25 12:35:00,39.8,25.1,30.11,South,183,2.0,6.0,55,-99.99,,,0.00,1-wire,2013-02-25 18:35:00,
2013-02-25 12:40:00,40.5,26.2,30.10,SSW,205,2.0,6.0,56,-99.99,,,0.00,1-wire,2013-02-25 18:40:00,
2013-02-25 12:45:00,40.0,25.5,30.10,SSW,205,3.0,6.0,56,-99.99,,,0.00,1-wire,2013-02-25 18:45:00,
2013-02-25 12:51:00,40.6,25.8,30.10,SSW,197,1.0,3.0,55,-99.99,,,0.00,1-wire,2013-02-25 18:51:00,
2013-02-25 12:56:00,41.4,26.2,30.10,SSW,197,4.0,6.0,55,-99.99,,,0.00,1-wire,2013-02-25 18:56:00,
2013-02-25 13:01:00,41.4,26.4,30.10,SSW,197,0.0,3.0,55,-99.99,,,0.00,1-wire,2013-02-25 19:01:00,
2013-02-25 13:07:00,41.4,26.0,30.09,South,187,5.0,9.0,54,-99.99,,,0.00,1-wire,2013-02-25 19:07:00,
2013-02-25 13:13:00,42.0,26.6,30.09,South,187,1.0,3.0,54,-99.99,,,0.00,1-wire,2013-02-25 19:13:00,
2013-02-25 13:18:00,41.1,26.1,30.08,South,187,2.0,6.0,55,-99.99,,,0.00,1-wire,2013-02-25 19:18:00,
2013-02-25 13:23:00,39.9,25.0,30.08,South,180,4.0,11.0,55,-99.99,,,0.00,1-wire,2013-02-25 19:23:00,
2013-02-25 13:28:00,40.9,26.1,30.08,South,180,0.0,3.0,55,-99.99,,,0.00,1-wire,2013-02-25 19:28:00,
2013-02-25 13:34:00,40.4,25.7,30.08,South,180,3.0,8.0,55,-99.99,,,0.00,1-wire,2013-02-25 19:34:00,
2013-02-25 13:39:00,40.6,26.0,30.07,SSW,196,4.0,6.0,56,-99.99,,,0.00,1-wire,2013-02-25 19:39:00,
2013-02-25 13:44:00,40.7,26.2,30.07,SSW,196,0.0,3.0,56,-99.99,,,0.00,1-wire,2013-02-25 19:44:00,
2013-02-25 13:50:00,41.1,26.0,30.06,SSW,196,1.0,3.0,55,-99.99,,,0.00,1-wire,2013-02-25 19:50:00,
2013-02-25 13:56:00,39.9,25.3,30.07,SSW,195,1.0,6.0,56,-99.99,,,0.00,1-wire,2013-02-25 19:56:00,
2013-02-25 14:01:00,40.3,26.4,30.06,SSW,195,3.0,6.0,57,-99.99,,,0.00,1-wire,2013-02-25 20:01:00,
2013-02-25 14:06:00,39.7,25.8,30.06,SSE,166,2.0,6.0,57,-99.99,,,0.00,1-wire,2013-02-25 20:06:00,
2013-02-25 14:12:00,39.8,25.4,30.07,SSE,166,2.0,6.0,56,-99.99,,,0.00,1-wire,2013-02-25 20:12:00,
2013-02-25 14:17:00,39.7,25.9,30.06,SSE,166,2.0,6.0,57,-99.99,,,0.00,1-wire,2013-02-25 20:17:00,
2013-02-25 14:22:00,40.2,25.6,30.06,South,184,0.0,5.0,56,-99.99,,,0.00,1-wire,2013-02-25 20:22:00,
2013-02-25 14:27:00,40.4,25.6,30.05,South,184,4.0,6.0,55,-99.99,,,0.00,1-wire,2013-02-25 20:27:00,
2013-02-25 14:32:00,39.9,25.7,30.05,South,184,0.0,3.0,57,-99.99,,,0.00,1-wire,2013-02-25 20:32:00,
2013-02-25 14:37:00,39.7,25.5,30.06,SSW,200,2.0,6.0,56,-99.99,,,0.00,1-wire,2013-02-25 20:37:00,
2013-02-25 14:42:00,39.5,25.5,30.05,SSW,200,1.0,3.0,57,-99.99,,,0.00,1-wire,2013-02-25 20:42:00,
2013-02-25 14:47:00,39.5,25.3,30.06,SSW,200,2.0,6.0,56,-99.99,,,0.00,1-wire,2013-02-25 20:47:00,
2013-02-25 14:52:00,39.4,25.6,30.06,South,179,3.0,6.0,57,-99.99,,,0.00,1-wire,2013-02-25 20:52:00,
2013-02-25 14:57:00,39.5,25.4,30.06,South,179,3.0,6.0,57,-99.99,,,0.00,1-wire,2013-02-25 20:57:00,
2013-02-25 15:02:00,39.7,25.9,30.05,South,179,2.0,6.0,57,-99.99,,,0.00,1-wire,2013-02-25 21:02:00,
2013-02-25 15:07:00,40.3,26.3,30.06,SSW,196,1.0,3.0,57,-99.99,,,0.00,1-wire,2013-02-25 21:07:00,
2013-02-25 15:12:00,40.3,26.0,30.07,SSW,196,1.0,3.0,56,-99.99,,,0.00,1-wire,2013-02-25 21:12:00,
2013-02-25 15:17:00,40.2,25.9,30.06,SSW,196,1.0,6.0,56,-99.99,,,0.00,1-wire,2013-02-25 21:17:00,
2013-02-25 15:22:00,39.9,26.1,30.06,SSW,192,1.0,3.0,57,-99.99,,,0.00,1-wire,2013-02-25 21:22:00,
2013-02-25 15:27:00,39.7,25.7,30.06,SSW,192,0.0,3.0,57,-99.99,,,0.00,1-wire,2013-02-25 21:27:00,
2013-02-25 15:32:00,40.1,26.0,30.07,SSW,192,5.0,8.0,57,-99.99,,,0.00,1-wire,2013-02-25 21:32:00,
2013-02-25 15:37:00,40.7,26.2,30.07,SSW,206,2.0,6.0,56,-99.99,,,0.00,1-wire,2013-02-25 21:37:00,
2013-02-25 15:42:00,40.4,26.1,30.07,SSW,206,1.0,6.0,56,-99.99,,,0.00,1-wire,2013-02-25 21:42:00,
2013-02-25 15:47:00,40.6,25.9,30.07,SSW,206,1.0,6.0,56,-99.99,,,0.00,1-wire,2013-02-25 21:47:00,
2013-02-25 15:52:00,40.0,25.6,30.06,SSW,207,2.0,3.0,56,-99.99,,,0.00,1-wire,2013-02-25 21:52:00,
2013-02-25 15:57:00,40.1,25.7,30.07,SSW,207,0.0,5.0,56,-99.99,,,0.00,1-wire,2013-02-25 21:57:00,
2013-02-25 16:02:00,40.3,25.7,30.07,SSW,207,0.0,3.0,56,-99.99,,,0.00,1-wire,2013-02-25 22:02:00,
2013-02-25 16:07:00,40.8,26.1,30.07,SSW,211,1.0,3.0,55,-99.99,,,0.00,1-wire,2013-02-25 22:07:00,
2013-02-25 16:12:00,40.0,25.9,30.06,SSW,211,1.0,3.0,57,-99.99,,,0.00,1-wire,2013-02-25 22:12:00,
2013-02-25 16:17:00,39.9,25.4,30.06,SSW,211,0.0,3.0,56,-99.99,,,0.00,1-wire,2013-02-25 22:17:00,
2013-02-25 16:22:00,39.6,25.4,30.06,South,178,0.0,3.0,56,-99.99,,,0.00,1-wire,2013-02-25 22:22:00,
2013-02-25 16:27:00,39.8,25.2,30.05,South,178,0.0,0.0,56,-99.99,,,0.00,1-wire,2013-02-25 22:27:00,
2013-02-25 16:32:00,39.6,25.3,30.06,South,178,0.0,0.0,56,-99.99,,,0.00,1-wire,2013-02-25 22:32:00,
2013-02-25 16:37:00,39.6,25.9,30.05,South,171,0.0,0.0,58,-99.99,,,0.00,1-wire,2013-02-25 22:37:00,
2013-02-25 16:42:00,39.4,25.5,30.05,South,171,0.0,0.0,57,-99.99,,,0.00,1-wire,2013-02-25 22:42:00,
2013-02-25 16:47:00,39.4,25.9,30.05,South,171,0.0,0.0,58,-99.99,,,0.00,1-wire,2013-02-25 22:47:00,
2013-02-25 16:53:00,39.0,25.9,30.04,South,178,0.0,0.0,59,-99.99,,,0.00,1-wire,2013-02-25 22:53:00,
2013-02-25 16:59:00,38.5,24.7,30.04,South,178,1.0,3.0,57,-99.99,,,0.00,1-wire,2013-02-25 22:59:00,
2013-02-25 17:04:00,38.7,25.8,30.04,South,178,0.0,3.0,59,-99.99,,,0.00,1-wire,2013-02-25 23:04:00,
2013-02-25 17:09:00,38.7,25.8,30.04,South,172,0.0,0.0,59,-99.99,,,0.00,1-wire,2013-02-25 23:09:00,
2013-02-25 17:15:00,37.9,25.1,30.04,South,172,1.0,3.0,60,-99.99,,,0.00,1-wire,2013-02-25 23:15:00,
2013-02-25 17:21:00,38.3,25.6,30.05,East,81,0.0,0.0,60,-99.99,,,0.00,1-wire,2013-02-25 23:21:00,
2013-02-25 17:26:00,37.9,25.7,30.05,East,81,0.0,3.0,61,-99.99,,,0.00,1-wire,2013-02-25 23:26:00,
2013-02-25 17:31:00,37.7,25.7,30.05,East,81,0.0,0.0,61,-99.99,,,0.00,1-wire,2013-02-25 23:31:00,
2013-02-25 17:36:00,37.5,25.5,30.05,East,86,0.0,0.0,62,-99.99,,,0.00,1-wire,2013-02-25 23:36:00,
2013-02-25 17:42:00,37.1,25.1,30.05,East,86,0.0,0.0,62,-99.99,,,0.00,1-wire,2013-02-25 23:42:00,
2013-02-25 17:47:00,36.9,25.6,30.05,East,86,0.0,0.0,63,-99.99,,,0.00,1-wire,2013-02-25 23:47:00,
2013-02-25 17:52:00,36.4,25.3,30.04,ENE,70,0.0,0.0,64,-99.99,,,0.00,1-wire,2013-02-25 23:52:00,
2013-02-25 17:57:00,35.9,25.1,30.04,ENE,70,0.0,0.0,65,-99.99,,,0.00,1-wire,2013-02-25 23:57:00,
2013-02-25 18:03:00,35.4,25.6,30.04,ENE,70,0.0,0.0,67,-99.99,,,0.00,1-wire,2013-02-26 00:03:00,
2013-02-25 18:08:00,34.4,25.3,30.04,ENE,64,0.0,0.0,69,-99.99,,,0.00,1-wire,2013-02-26 00:08:00,
2013-02-25 18:13:00,34.4,25.6,30.05,ENE,64,0.0,0.0,70,-99.99,,,0.00,1-wire,2013-02-26 00:13:00,
2013-02-25 18:18:00,34.3,25.6,30.05,ENE,64,0.0,0.0,70,-99.99,,,0.00,1-wire,2013-02-26 00:18:00,
2013-02-25 18:24:00,33.7,25.2,30.05,ENE,64,0.0,0.0,71,-99.99,,,0.00,1-wire,2013-02-26 00:24:00,
2013-02-25 18:29:00,33.7,25.3,30.05,ENE,64,0.0,0.0,71,-99.99,,,0.00,1-wire,2013-02-26 00:29:00,
2013-02-25 18:34:00,33.1,25.4,30.05,ENE,64,0.0,0.0,73,-99.99,,,0.00,1-wire,2013-02-26 00:34:00,
2013-02-25 18:40:00,33.5,25.6,30.05,NE,52,0.0,0.0,73,-99.99,,,0.00,1-wire,2013-02-26 00:40:00,
2013-02-25 18:45:00,32.8,25.1,30.05,NE,52,0.0,0.0,73,-99.99,,,0.00,1-wire,2013-02-26 00:45:00,
2013-02-25 18:50:00,32.7,25.3,30.05,NE,52,0.0,0.0,74,-99.99,,,0.00,1-wire,2013-02-26 00:50:00,
2013-02-25 18:55:00,32.8,25.4,30.06,ENE,57,0.0,0.0,74,-99.99,,,0.00,1-wire,2013-02-26 00:55:00,
2013-02-25 19:00:00,33.0,25.5,30.05,ENE,57,0.0,0.0,74,-99.99,,,0.00,1-wire,2013-02-26 01:00:00,
2013-02-25 19:05:00,32.6,25.3,30.05,ENE,57,0.0,0.0,74,-99.99,,,0.00,1-wire,2013-02-26 01:05:00,
2013-02-25 19:10:00,32.2,25.3,30.05,ENE,66,0.0,0.0,75,-99.99,,,0.00,1-wire,2013-02-26 01:10:00,
2013-02-25 19:15:00,32.5,25.4,30.05,ENE,66,0.0,0.0,75,-99.99,,,0.00,1-wire,2013-02-26 01:15:00,
2013-02-25 19:20:00,32.4,25.2,30.05,ENE,66,0.0,0.0,74,-99.99,,,0.00,1-wire,2013-02-26 01:20:00,
2013-02-25 19:25:00,32.2,25.2,30.05,NE,48,0.0,0.0,75,-99.99,,,0.00,1-wire,2013-02-26 01:25:00,
2013-02-25 19:30:00,31.9,25.0,30.04,NE,48,0.0,0.0,75,-99.99,,,0.00,1-wire,2013-02-26 01:30:00,
2013-02-25 19:35:00,32.0,25.2,30.04,NE,48,0.0,0.0,76,-99.99,,,0.00,1-wire,2013-02-26 01:35:00,
2013-02-25 19:40:00,31.6,25.0,30.03,NE,52,0.0,0.0,76,-99.99,,,0.00,1-wire,2013-02-26 01:40:00,
2013-02-25 19:45:00,31.8,25.3,30.03,NE,52,0.0,0.0,77,-99.99,,,0.00,1-wire,2013-02-26 01:45:00,
2013-02-25 19:50:00,32.0,25.4,30.03,NE,52,0.0,0.0,77,-99.99,,,0.00,1-wire,2013-02-26 01:50:00,
2013-02-25 19:55:00,31.6,25.1,30.03,NE,52,0.0,0.0,77,-99.99,,,0.00,1-wire,2013-02-26 01:55:00,
2013-02-25 20:00:00,31.8,25.3,30.03,NE,52,0.0,0.0,77,-99.99,,,0.00,1-wire,2013-02-26 02:00:00,
2013-02-25 20:05:00,31.7,25.1,30.02,NE,52,0.0,0.0,76,-99.99,,,0.00,1-wire,2013-02-26 02:05:00,
2013-02-25 20:10:00,31.9,25.1,30.02,NE,52,0.0,0.0,76,-99.99,,,0.00,1-wire,2013-02-26 02:10:00,
2013-02-25 20:15:00,31.7,24.9,30.02,NE,52,0.0,0.0,76,-99.99,,,0.00,1-wire,2013-02-26 02:15:00,
2013-02-25 20:20:00,31.8,25.0,30.02,NE,52,0.0,0.0,76,-99.99,,,0.00,1-wire,2013-02-26 02:20:00,
2013-02-25 20:25:00,31.7,25.1,30.01,ENE,60,0.0,0.0,76,-99.99,,,0.00,1-wire,2013-02-26 02:25:00,
2013-02-25 20:30:00,31.7,25.0,30.01,ENE,60,0.0,3.0,76,-99.99,,,0.00,1-wire,2013-02-26 02:30:00,
2013-02-25 20:35:00,31.7,24.9,30.01,ENE,60,0.0,3.0,76,-99.99,,,0.00,1-wire,2013-02-26 02:35:00,
2013-02-25 20:40:00,31.9,24.9,30.01,NE,55,0.0,0.0,75,-99.99,,,0.00,1-wire,2013-02-26 02:40:00,
2013-02-25 20:45:00,31.9,24.5,30.02,NE,55,0.0,0.0,74,-99.99,,,0.00,1-wire,2013-02-26 02:45:00,
2013-02-25 20:50:00,32.1,24.6,30.02,NE,55,0.0,3.0,73,-99.99,,,0.00,1-wire,2013-02-26 02:50:00,
2013-02-25 20:55:00,32.4,25.0,30.03,ENE,58,0.0,0.0,74,-99.99,,,0.00,1-wire,2013-02-26 02:55:00,
2013-02-25 21:00:00,32.2,24.6,30.03,ENE,58,0.0,0.0,73,-99.99,,,0.00,1-wire,2013-02-26 03:00:00,
2013-02-25 21:06:00,32.7,24.9,30.03,ENE,66,0.0,0.0,73,-99.99,,,0.00,1-wire,2013-02-26 03:06:00,
2013-02-25 21:11:00,32.3,24.6,30.03,ENE,66,0.0,3.0,73,-99.99,,,0.00,1-wire,2013-02-26 03:11:00,
2013-02-25 21:16:00,32.4,24.6,30.03,ENE,66,0.0,0.0,73,-99.99,,,0.00,1-wire,2013-02-26 03:16:00,
2013-02-25 21:21:00,32.2,24.7,30.03,ENE,60,0.0,0.0,73,-99.99,,,0.00,1-wire,2013-02-26 03:21:00,
2013-02-25 21:26:00,32.3,24.7,30.02,ENE,60,0.0,0.0,73,-99.99,,,0.00,1-wire,2013-02-26 03:26:00,
2013-02-25 21:32:00,31.9,24.4,30.02,ENE,60,0.0,0.0,74,-99.99,,,0.00,1-wire,2013-02-26 03:32:00,
2013-02-25 21:37:00,31.8,24.5,30.01,ENE,62,0.0,3.0,74,-99.99,,,0.00,1-wire,2013-02-26 03:37:00,
2013-02-25 21:42:00,31.7,24.2,30.02,ENE,62,1.0,3.0,73,-99.99,,,0.00,1-wire,2013-02-26 03:42:00,
2013-02-25 21:47:00,32.3,24.7,30.03,ENE,62,0.0,0.0,73,-99.99,,,0.00,1-wire,2013-02-26 03:47:00,
2013-02-25 21:52:00,32.2,24.5,30.03,ENE,62,0.0,0.0,73,-99.99,,,0.00,1-wire,2013-02-26 03:52:00,
2013-02-25 21:58:00,32.2,24.4,30.03,ENE,62,0.0,0.0,73,-99.99,,,0.00,1-wire,2013-02-26 03:58:00,
2013-02-25 22:04:00,32.2,24.4,30.03,ENE,62,0.0,0.0,72,-99.99,,,0.00,1-wire,2013-02-26 04:04:00,
2013-02-25 22:10:00,32.4,24.4,30.04,East,87,0.0,0.0,72,-99.99,,,0.00,1-wire,2013-02-26 04:10:00,
2013-02-25 22:15:00,32.2,24.2,30.04,East,87,0.0,0.0,72,-99.99,,,0.00,1-wire,2013-02-26 04:15:00,
2013-02-25 22:20:00,32.1,24.2,30.04,East,87,0.0,0.0,72,-99.99,,,0.00,1-wire,2013-02-26 04:20:00,
2013-02-25 22:25:00,31.7,24.0,30.03,East,98,0.0,3.0,73,-99.99,,,0.00,1-wire,2013-02-26 04:25:00,
2013-02-25 22:31:00,31.7,24.1,30.03,East,98,0.0,3.0,73,-99.99,,,0.00,1-wire,2013-02-26 04:31:00,
2013-02-25 22:37:00,32.0,24.4,30.03,East,95,0.0,0.0,73,-99.99,,,0.00,1-wire,2013-02-26 04:37:00,
2013-02-25 22:42:00,31.9,24.2,30.03,East,95,0.0,0.0,73,-99.99,,,0.00,1-wire,2013-02-26 04:42:00,
2013-02-25 22:47:00,31.5,23.9,30.03,East,95,0.0,0.0,73,-99.99,,,0.00,1-wire,2013-02-26 04:47:00,
2013-02-25 22:52:00,31.7,24.2,30.03,East,94,0.0,0.0,73,-99.99,,,0.00,1-wire,2013-02-26 04:52:00,
2013-02-25 22:57:00,31.3,23.8,30.03,East,94,0.0,0.0,73,-99.99,,,0.00,1-wire,2013-02-26 04:57:00,
2013-02-25 23:00:00,31.7,24.0,30.03,East,94,0.0,0.0,73,-99.99,,,0.00,1-wire,2013-02-26 05:00:00,
2013-02-25 23:02:00,31.5,23.9,30.03,East,94,0.0,0.0,73,-99.99,,,0.00,1-wire,2013-02-26 05:02:00,
2013-02-25 23:05:00,31.6,24.0,30.03,East,94,0.0,0.0,73,-99.99,,,0.00,1-wire,2013-02-26 05:05:00,
2013-02-25 23:08:00,31.5,23.9,30.03,East,92,0.0,0.0,73,-99.99,,,0.00,1-wire,2013-02-26 05:08:00,
2013-02-25 23:13:00,31.3,23.8,30.03,East,92,0.0,0.0,73,-99.99,,,0.00,1-wire,2013-02-26 05:13:00,
2013-02-25 23:18:00,31.4,23.9,30.02,East,92,0.0,0.0,74,-99.99,,,0.00,1-wire,2013-02-26 05:18:00,
2013-02-25 23:23:00,31.3,23.9,30.02,East,86,0.0,0.0,74,-99.99,,,0.00,1-wire,2013-02-26 05:23:00,
2013-02-25 23:28:00,31.6,24.2,30.01,East,86,0.0,0.0,74,-99.99,,,0.00,1-wire,2013-02-26 05:28:00,
2013-02-25 23:34:00,31.1,23.9,30.01,East,86,0.0,0.0,74,-99.99,,,0.00,1-wire,2013-02-26 05:34:00,
2013-02-25 23:39:00,31.2,24.0,30.01,ENE,78,0.0,0.0,74,-99.99,,,0.00,1-wire,2013-02-26 05:39:00,
2013-02-25 23:44:00,30.9,23.7,30.01,ENE,78,0.0,0.0,74,-99.99,,,0.00,1-wire,2013-02-26 05:44:00,
2013-02-25 23:49:00,30.7,23.3,30.01,ENE,78,0.0,3.0,73,-99.99,,,0.00,1-wire,2013-02-26 05:49:00,
2013-02-25 23:54:00,30.9,23.3,30.00,East,82,0.0,0.0,73,-99.99,,,0.00,1-wire,2013-02-26 05:54:00,
2013-02-25 23:59:00,31.1,23.4,30.00,East,82,0.0,0.0,73,-99.99,,,0.00,1-wire,2013-02-26 05:59:00,